Duncans Bridge, Missouri
Current Conditions -  °F | °C
As of 2:55 PM on Friday 31 Oct 2014 (Local Time) from KIRK Reporting Station
Clear Clear  
Wind Chill: 36°   Ceiling: Unl
Heat Index: 44°   Visibility: 10mi
Dew Point: 20°   Wind: 18mph
Humidity: 38%   Direction: 360°N
Pressure: 30.4"   Gusts: 24mph
Location:  39.735°N, 92.239°W
Report Text: KIRK 311955Z AUTO 36016G21KT 10SM CLR 07/M07 A3040 RMK AO2 SLP303 T00671067
Loading
Personal Weather Stations






























Interactive Weather Map New forecast layout! Learn more

10-Day Weather Forecast

Advertisements
Track Severe Weather on mobile